Main page
METAR-TAF:

METAR-TAF

Airports :

Longana Airport

Aoba Island, Vanuatu

latitude: 15-18-24S, longitude: 167-58-02E, elevation: 51 m

Current weather observation

The report was made 6 hours and 29 minutes ago, at 12:00 UTC
Wind 15 kt from the East/Southeast
Temperature 26°C
Humidity 94%
Pressure 1013 hPa
Visibility 10 km or more
Broken clouds at a height of 2000 ft

METAR: NVSG COR 211200Z 12015KT 9999 BKN020 26/25 Q1013

Time: 05:29 (18:29 UTC)

Forecast

The report was made 1 hour and 29 minutes ago, at 17:00 UTC
Forecast valid from 21 at 18 UTC to 22 at 18 UTC
Wind 12 kt from the Southeast
Visibility 10 km or more
Scattered clouds at a height of 2000 ft
Broken clouds at a height of 4000 ft
Probability 40%
between IN and TE UTC
Visibility: 8000 m
Scattered clouds at a height of 1000 ft
Broken clouds at a height of 1600 ft
Overcast at a height of 3800 ft
rain showers,

TAF: NVSG 211700Z 2118/2218 13012KT 9999 SCT020 BKN040 PROB40 INTER 2118/2124 8000 SHRA SCT010 BKN016 OVC038

Weather observations and forecasts of more than 4000 airports (METAR and TAF reports).

The available stations are represented by yellow and red dots on the map.

Hover mouse over dot to see the name of the station.

Then click to see weather observations and forecasts.

To change the map : click on the green buttons with a black cross to zoom in, on the green button with a dash to zoom out, or on the green arrows for adjacent maps.


METAR-TAF: